Time;durP1;ratioP1;P1;durP2;ratioP2;P2;SDS_P1;SDS_P2;PMS_P1;PMS_P2;Temp;Humidity;BMP_temperature;BMP_pressure;BME280_temperature;BME280_humidity;BME280_pressure;Samples;Min_cycle;Max_cycle;Signal;HPM_P1;HPM_P2
2023/08/22 00:00:21;;;;;;;4.95;3.58;;;20.70;99.90;;;;;;4979122;28;20267;-83
2023/08/22 00:02:46;;;;;;;4.20;3.25;;;20.70;99.90;;;;;;4996627;28;20204;-83
2023/08/22 00:05:12;;;;;;;3.90;3.20;;;20.70;99.90;;;;;;4997740;28;20176;-83
2023/08/22 00:07:38;;;;;;;4.97;3.30;;;20.80;99.90;;;;;;4997174;28;20638;-85
2023/08/22 00:10:05;;;;;;;4.70;3.28;;;20.80;99.90;;;;;;4996885;28;20184;-83
2023/08/22 00:12:31;;;;;;;3.60;3.30;;;20.80;99.90;;;;;;4979123;28;20249;-83
2023/08/22 00:14:56;;;;;;;4.88;3.28;;;20.70;99.90;;;;;;4997696;28;20180;-83
2023/08/22 00:17:24;;;;;;;5.18;3.17;;;20.70;99.90;;;;;;4978846;28;20196;-83
2023/08/22 00:19:50;;;;;;;4.55;3.67;;;20.70;99.90;;;;;;4979149;28;20209;-83
2023/08/22 00:22:16;;;;;;;4.70;3.35;;;20.70;99.90;;;;;;4978927;28;20180;-83
2023/08/22 00:24:41;;;;;;;4.35;3.40;;;20.60;99.90;;;;;;4979339;28;20168;-83
2023/08/22 00:27:07;;;;;;;4.28;3.42;;;20.70;99.90;;;;;;4996716;28;20176;-84
2023/08/22 00:29:32;;;;;;;6.47;3.38;;;20.80;99.90;;;;;;4982278;28;20253;-83
2023/08/22 00:31:58;;;;;;;4.13;3.25;;;20.80;99.90;;;;;;4999848;28;20186;-84
2023/08/22 00:34:24;;;;;;;4.43;3.55;;;20.70;99.90;;;;;;4981195;28;20195;-83
2023/08/22 00:36:50;;;;;;;6.13;3.75;;;20.80;99.90;;;;;;4982389;28;20199;-83
2023/08/22 00:39:15;;;;;;;4.90;3.70;;;20.80;99.90;;;;;;4999907;28;20176;-82
2023/08/22 00:41:42;;;;;;;4.35;3.92;;;20.80;99.90;;;;;;4982037;28;20227;-83
2023/08/22 00:44:07;;;;;;;3.65;3.35;;;20.80;99.90;;;;;;4981955;28;20261;-84
2023/08/22 00:46:34;;;;;;;8.40;3.60;;;20.80;99.90;;;;;;4982385;28;20184;-84
2023/08/22 00:49:00;;;;;;;6.55;3.42;;;20.90;99.90;;;;;;5000068;28;20256;-82
2023/08/22 00:51:25;;;;;;;5.00;3.40;;;20.70;99.90;;;;;;4999620;28;20661;-84
2023/08/22 00:53:51;;;;;;;6.25;3.85;;;20.70;99.90;;;;;;5020375;28;20206;-83
2023/08/22 00:56:17;;;;;;;5.20;3.33;;;20.50;99.90;;;;;;5010021;28;20192;-83
2023/08/22 00:58:43;;;;;;;4.18;3.80;;;20.50;99.90;;;;;;4982290;28;20183;-83
2023/08/22 01:01:08;;;;;;;5.20;3.72;;;20.50;99.90;;;;;;5002968;28;20175;-83
2023/08/22 01:03:34;;;;;;;7.78;3.30;;;20.50;99.90;;;;;;5022902;28;20215;-84
2023/08/22 01:06:10;;;;;;;5.15;3.63;;;20.40;99.90;;;;;;5000165;28;20669;-83
2023/08/22 01:08:39;;;;;;;4.28;3.70;;;20.40;99.90;;;;;;4982548;28;20172;-83
2023/08/22 01:11:15;;;;;;;7.07;3.90;;;20.40;99.90;;;;;;4982155;28;20176;-83
2023/08/22 01:13:42;;;;;;;5.18;3.67;;;20.40;99.90;;;;;;5000224;28;20259;-83
2023/08/22 01:16:08;;;;;;;5.70;3.40;;;20.30;99.90;;;;;;4981877;28;20167;-83
2023/08/22 01:18:34;;;;;;;4.88;3.60;;;20.40;99.90;;;;;;4981879;28;20176;-83
2023/08/22 01:21:06;;;;;;;6.03;3.83;;;20.50;99.90;;;;;;4981354;28;20603;-83
2023/08/22 01:23:32;;;;;;;5.95;3.95;;;20.40;99.90;;;;;;4981636;28;20191;-83
2023/08/22 01:25:58;;;;;;;6.18;3.38;;;20.30;99.90;;;;;;4981392;28;20529;-83
2023/08/22 01:28:26;;;;;;;5.25;3.50;;;20.30;99.90;;;;;;4998970;28;20694;-83
2023/08/22 01:31:04;;;;;;;4.40;3.90;;;20.40;99.90;;;;;;4980640;28;20167;-83
2023/08/22 01:33:43;;;;;;;7.40;3.75;;;20.40;99.90;;;;;;4980971;28;20199;-83
2023/08/22 01:36:10;;;;;;;5.47;3.60;;;20.30;99.90;;;;;;4981846;28;20179;-83
2023/08/22 01:38:39;;;;;;;4.72;4.18;;;20.30;99.90;;;;;;4999716;28;20171;-83
2023/08/22 01:41:07;;;;;;;4.47;3.83;;;20.30;99.90;;;;;;4979780;28;20203;-84
2023/08/22 01:43:34;;;;;;;4.70;3.70;;;20.40;99.90;;;;;;4981122;28;20188;-83
2023/08/22 01:46:00;;;;;;;4.32;3.88;;;20.40;99.90;;;;;;4981310;28;20172;-83
2023/08/22 01:48:25;;;;;;;5.63;3.75;;;20.40;99.90;;;;;;4999662;28;20168;-84
2023/08/22 01:50:51;;;;;;;4.63;3.88;;;20.40;99.90;;;;;;4998783;28;20160;-79
2023/08/22 01:53:16;;;;;;;5.28;3.70;;;20.20;99.90;;;;;;4999253;28;20196;-82
2023/08/22 01:55:42;;;;;;;3.85;3.47;;;20.10;99.90;;;;;;4980965;28;20175;-83
2023/08/22 01:58:11;;;;;;;4.97;3.38;;;20.20;99.90;;;;;;4998542;28;20203;-84
2023/08/22 02:00:37;;;;;;;6.53;3.75;;;20.20;99.90;;;;;;4982321;28;20196;-83
2023/08/22 02:03:03;;;;;;;4.13;3.65;;;20.10;99.90;;;;;;4985583;28;20203;-83
2023/08/22 02:05:29;;;;;;;4.75;4.07;;;20.10;99.90;;;;;;4998996;28;20197;-83
2023/08/22 02:07:54;;;;;;;4.78;3.65;;;20.10;99.90;;;;;;4981022;28;20214;-82
2023/08/22 02:10:20;;;;;;;4.82;3.70;;;20.00;99.90;;;;;;4998347;28;20180;-83
2023/08/22 02:12:46;;;;;;;5.20;3.90;;;20.00;99.90;;;;;;4981051;28;20196;-82
2023/08/22 02:15:11;;;;;;;6.20;4.00;;;19.90;99.90;;;;;;4981293;28;20685;-83
2023/08/22 02:17:38;;;;;;;4.30;3.78;;;19.90;99.90;;;;;;4998360;28;20238;-83
2023/08/22 02:20:04;;;;;;;4.30;3.70;;;19.90;99.90;;;;;;4980583;28;20172;-82
2023/08/22 02:22:29;;;;;;;8.18;3.83;;;19.90;99.90;;;;;;4998770;28;20179;-82
2023/08/22 02:24:55;;;;;;;4.85;3.60;;;19.70;99.90;;;;;;4981055;28;20172;-83
2023/08/22 02:27:21;;;;;;;4.15;3.47;;;19.60;99.90;;;;;;4999016;28;20183;-83
2023/08/22 02:29:47;;;;;;;3.58;3.28;;;19.50;99.90;;;;;;4998442;28;20210;-82
2023/08/22 02:32:12;;;;;;;4.32;3.90;;;19.50;99.90;;;;;;4998671;28;20179;-83
2023/08/22 02:34:38;;;;;;;3.67;3.22;;;19.50;99.90;;;;;;4998234;28;20175;-82
2023/08/22 02:37:03;;;;;;;4.25;3.55;;;19.50;99.90;;;;;;4998608;28;20227;-83
2023/08/22 02:39:29;;;;;;;5.05;3.58;;;19.50;99.90;;;;;;4980754;28;20179;-82
2023/08/22 02:41:55;;;;;;;4.53;3.97;;;19.50;99.90;;;;;;4997366;28;20172;-82
2023/08/22 02:44:20;;;;;;;6.47;3.92;;;19.50;99.90;;;;;;4980226;28;20203;-83
2023/08/22 02:46:46;;;;;;;5.22;3.67;;;19.50;99.90;;;;;;4998212;28;20251;-83
2023/08/22 02:49:11;;;;;;;4.63;4.07;;;19.40;99.90;;;;;;4998009;28;20208;-82
2023/08/22 02:51:37;;;;;;;4.07;3.40;;;19.40;99.90;;;;;;4974268;28;20202;-83
2023/08/22 02:54:03;;;;;;;3.65;3.08;;;19.40;99.90;;;;;;4979924;28;20320;-83
2023/08/22 02:56:28;;;;;;;4.00;3.70;;;19.30;99.90;;;;;;4997912;28;20204;-83
2023/08/22 02:58:54;;;;;;;3.70;3.30;;;19.40;99.90;;;;;;4997887;28;20184;-83
2023/08/22 03:01:19;;;;;;;3.90;3.17;;;19.20;99.90;;;;;;4997792;28;20250;-83
2023/08/22 03:03:50;;;;;;;5.70;3.50;;;19.20;99.90;;;;;;4997487;28;20212;-83
2023/08/22 03:06:16;;;;;;;5.43;3.42;;;19.10;99.90;;;;;;4980301;28;20179;-82
2023/08/22 03:08:42;;;;;;;7.32;3.95;;;19.10;99.90;;;;;;4998110;28;20176;-83
2023/08/22 03:11:07;;;;;;;4.43;3.85;;;19.10;99.90;;;;;;4978150;28;20267;-82
2023/08/22 03:13:33;;;;;;;4.78;4.05;;;19.10;99.90;;;;;;4979380;28;20195;-82
2023/08/22 03:15:58;;;;;;;4.70;3.83;;;19.10;99.90;;;;;;4979305;28;20202;-82
2023/08/22 03:18:25;;;;;;;4.55;4.00;;;19.10;99.90;;;;;;4997175;28;20194;-83
2023/08/22 03:20:58;;;;;;;3.55;3.08;;;19.10;99.90;;;;;;4996970;28;20228;-84
2023/08/22 03:23:24;;;;;;;6.50;3.40;;;19.00;99.90;;;;;;4979609;28;20286;-82
2023/08/22 03:26:00;;;;;;;5.15;3.85;;;19.00;99.90;;;;;;4997223;28;20229;-82
2023/08/22 03:28:26;;;;;;;6.53;3.90;;;19.00;99.90;;;;;;4997322;28;20168;-83
2023/08/22 03:31:03;;;;;;;5.18;3.80;;;19.10;99.90;;;;;;4996436;28;20255;-82
2023/08/22 03:33:29;;;;;;;6.00;4.07;;;19.10;99.90;;;;;;4979115;28;20578;-82
2023/08/22 03:35:56;;;;;;;5.30;4.13;;;19.00;99.90;;;;;;4979283;28;20229;-83
2023/08/22 03:38:22;;;;;;;4.32;3.92;;;19.00;99.90;;;;;;4979211;28;20203;-83
2023/08/22 03:40:48;;;;;;;6.07;3.97;;;19.00;99.90;;;;;;4979343;28;20228;-82
2023/08/22 03:43:18;;;;;;;5.07;4.10;;;19.00;99.90;;;;;;4979954;28;20226;-82
2023/08/22 03:45:45;;;;;;;4.28;3.88;;;19.00;99.90;;;;;;4996149;28;20168;-82
2023/08/22 03:48:10;;;;;;;6.93;3.78;;;19.10;99.90;;;;;;4997482;28;20176;-83
2023/08/22 03:50:39;;;;;;;5.35;3.90;;;19.20;99.90;;;;;;4997100;28;20232;-83
2023/08/22 03:53:05;;;;;;;4.95;4.00;;;19.20;99.90;;;;;;4978811;28;20199;-84
2023/08/22 03:55:31;;;;;;;4.90;3.90;;;19.20;99.90;;;;;;4996598;28;20172;-83
2023/08/22 03:58:00;;;;;;;5.63;4.40;;;19.30;99.90;;;;;;4978358;28;20213;-83
2023/08/22 04:00:26;;;;;;;4.60;4.10;;;19.30;99.90;;;;;;4996029;28;20182;-82
2023/08/22 04:02:56;;;;;;;4.47;3.88;;;19.20;99.90;;;;;;4978714;28;20199;-82
2023/08/22 04:05:22;;;;;;;5.18;4.30;;;19.20;99.90;;;;;;5000275;28;20179;-82
2023/08/22 04:07:49;;;;;;;5.38;3.75;;;19.10;99.90;;;;;;4982350;28;20225;-83
2023/08/22 04:10:14;;;;;;;4.60;4.03;;;19.10;99.90;;;;;;4999786;28;20178;-82
2023/08/22 04:12:40;;;;;;;4.10;3.70;;;19.00;99.90;;;;;;4982733;28;20678;-83
2023/08/22 04:15:07;;;;;;;4.25;3.85;;;19.00;99.90;;;;;;4982105;28;20240;-83
2023/08/22 04:17:32;;;;;;;4.18;3.72;;;18.80;99.90;;;;;;4981898;28;20206;-82
2023/08/22 04:19:58;;;;;;;4.10;3.67;;;18.80;99.90;;;;;;4981344;28;20179;-82
2023/08/22 04:22:23;;;;;;;5.00;4.18;;;18.80;99.90;;;;;;5000087;28;20186;-82
2023/08/22 04:24:49;;;;;;;5.63;3.90;;;18.80;99.90;;;;;;5000422;28;20190;-82
2023/08/22 04:27:14;;;;;;;4.47;3.60;;;18.90;99.90;;;;;;4982084;28;20229;-82
2023/08/22 04:29:40;;;;;;;3.45;3.15;;;19.40;99.90;;;;;;4981829;28;20587;-83
2023/08/22 04:32:05;;;;;;;3.72;3.13;;;20.30;99.90;;;;;;5000258;28;20197;-82
2023/08/22 04:34:31;;;;;;;3.67;2.80;;;20.90;99.90;;;;;;4980981;28;20198;-82
2023/08/22 04:36:56;;;;;;;3.70;2.92;;;20.80;99.90;;;;;;4999020;28;20211;-82
2023/08/22 04:39:22;;;;;;;4.07;3.50;;;21.20;1.00;;;;;;4998807;28;20176;-84
2023/08/22 04:41:50;;;;;;;3.50;3.20;;;21.00;1.00;;;;;;4999202;28;20172;-82
2023/08/22 04:44:16;;;;;;;3.67;3.33;;;21.10;54.10;;;;;;4981712;28;20192;-83
2023/08/22 04:46:42;;;;;;;3.60;3.30;;;21.10;29.10;;;;;;4981796;28;20176;-83
2023/08/22 04:49:07;;;;;;;3.60;3.30;;;20.90;1.00;;;;;;4981356;28;20175;-82
2023/08/22 04:51:33;;;;;;;5.32;3.30;;;20.60;1.00;;;;;;4998232;28;20190;-84
2023/08/22 04:53:58;;;;;;;4.75;3.95;;;20.70;99.90;;;;;;4998512;28;20195;-82
2023/08/22 04:56:24;;;;;;;4.10;3.50;;;20.90;1.00;;;;;;4981974;28;20199;-82
2023/08/22 04:58:51;;;;;;;5.22;3.30;;;21.00;95.80;;;;;;4998318;28;20255;-83
2023/08/22 05:01:16;;;;;;;2.95;2.75;;;21.20;1.00;;;;;;4998448;28;20544;-82
2023/08/22 05:03:42;;;;;;;3.33;3.03;;;21.50;1.00;;;;;;5062201;22;20339;-79
2023/08/22 05:06:07;;;;;;;3.80;3.35;;;21.20;1.00;;;;;;5094531;28;20251;-79
2023/08/22 05:08:33;;;;;;;5.10;3.50;;;21.20;1.00;;;;;;5095688;28;20635;-79
2023/08/22 05:10:58;;;;;;;3.97;3.47;;;21.10;1.00;;;;;;5095224;28;20172;-80
2023/08/22 05:13:24;;;;;;;4.22;3.45;;;20.70;91.90;;;;;;5095163;28;20224;-78
2023/08/22 05:15:49;;;;;;;5.63;3.60;;;20.50;99.90;;;;;;5095393;28;20190;-81
2023/08/22 05:18:15;;;;;;;3.90;3.50;;;20.70;99.90;;;;;;5093676;28;20218;-79
2023/08/22 05:20:41;;;;;;;3.65;3.30;;;20.90;77.00;;;;;;5092805;28;20165;-79
2023/08/22 05:23:06;;;;;;;4.20;3.17;;;21.10;1.00;;;;;;5095127;28;20192;-81
2023/08/22 05:25:32;;;;;;;3.85;3.00;;;21.30;1.00;;;;;;5093821;28;20184;-79
2023/08/22 05:27:57;;;;;;;5.05;3.05;;;21.40;99.90;;;;;;5094367;28;20172;-79
2023/08/22 05:30:23;;;;;;;2.92;2.72;;;21.30;1.00;;;;;;5093317;28;20168;-80
2023/08/22 05:32:49;;;;;;;2.95;2.67;;;21.30;1.00;;;;;;5093557;28;20172;-79
2023/08/22 05:35:14;;;;;;;3.65;3.35;;;21.50;1.00;;;;;;5093214;28;20635;-83
2023/08/22 05:37:40;;;;;;;5.47;3.20;;;21.20;1.00;;;;;;5093267;28;20219;-83
2023/08/22 05:40:07;;;;;;;4.03;3.65;;;21.10;40.90;;;;;;5093752;28;20634;-85
2023/08/22 05:42:33;;;;;;;5.38;4.30;;;20.80;99.90;;;;;;5093235;28;20177;-86
2023/08/22 05:44:59;;;;;;;4.22;3.72;;;20.60;99.90;;;;;;5092934;28;20291;-85
2023/08/22 05:47:24;;;;;;;5.13;4.07;;;20.60;99.90;;;;;;5093178;28;20176;-84
2023/08/22 05:49:50;;;;;;;5.30;3.70;;;20.70;99.90;;;;;;5092272;28;20638;-80
2023/08/22 05:52:15;;;;;;;5.03;3.72;;;20.70;99.90;;;;;;5094644;28;20176;-82
2023/08/22 05:54:41;;;;;;;4.88;4.40;;;20.80;99.90;;;;;;5094035;28;20192;-83
2023/08/22 05:57:07;;;;;;;4.80;4.40;;;20.80;99.90;;;;;;5093915;28;20184;-86
2023/08/22 05:59:33;;;;;;;6.78;4.30;;;20.90;99.90;;;;;;5093898;28;20190;-83
2023/08/22 06:01:58;;;;;;;5.25;3.33;;;21.50;99.90;;;;;;5092142;28;20168;-83
2023/08/22 06:04:25;;;;;;;4.65;3.95;;;22.10;1.00;;;;;;5093520;28;20208;-83
2023/08/22 06:06:50;;;;;;;4.25;3.85;;;22.30;1.00;;;;;;5093706;28;20165;-83
2023/08/22 06:09:16;;;;;;;4.57;4.18;;;22.60;1.00;;;;;;5092601;28;20168;-83
2023/08/22 06:11:42;;;;;;;5.38;4.20;;;22.90;99.90;;;;;;5092013;28;20180;-84
2023/08/22 06:14:07;;;;;;;5.70;4.75;;;22.90;1.00;;;;;;5093939;28;20192;-83
2023/08/22 06:16:33;;;;;;;4.40;4.00;;;23.20;1.00;;;;;;5094045;28;20321;-83
2023/08/22 06:19:00;;;;;;;7.10;5.63;;;23.10;1.00;;;;;;5093927;28;20665;-82
2023/08/22 06:21:26;;;;;;;5.03;4.50;;;22.90;1.00;;;;;;5091675;28;20173;-83
2023/08/22 06:23:52;;;;;;;7.00;5.70;;;22.80;99.90;;;;;;5092482;28;20602;-82
2023/08/22 06:26:19;;;;;;;5.00;3.90;;;22.60;99.90;;;;;;5091656;28;20168;-83
2023/08/22 06:28:46;;;;;;;5.13;4.63;;;22.50;1.00;;;;;;5096309;28;20207;-83
2023/08/22 06:31:11;;;;;;;7.15;6.00;;;22.60;1.00;;;;;;5098831;28;20172;-83
2023/08/22 06:33:37;;;;;;;7.25;6.05;;;22.10;1.00;;;;;;5097495;28;20180;-83
2023/08/22 06:36:03;;;;;;;5.28;4.78;;;22.30;1.00;;;;;;5098903;28;20225;-83
2023/08/22 06:38:28;;;;;;;7.03;5.15;;;22.20;1.00;;;;;;5099352;28;20219;-83
2023/08/22 06:40:54;;;;;;;7.25;6.55;;;22.10;87.20;;;;;;5098957;28;20557;-83
2023/08/22 06:43:22;;;;;;;6.93;6.15;;;21.90;99.90;;;;;;5096114;28;20570;-84
2023/08/22 06:45:47;;;;;;;7.07;6.38;;;21.70;99.90;;;;;;5097205;28;20202;-84
2023/08/22 06:48:13;;;;;;;7.25;6.55;;;21.60;99.90;;;;;;5095253;28;20172;-83
2023/08/22 06:50:39;;;;;;;7.97;4.68;;;21.80;99.90;;;;;;5091531;28;20204;-83
2023/08/22 06:53:04;;;;;;;4.93;4.43;;;21.90;99.90;;;;;;5092600;28;20258;-83
2023/08/22 06:55:30;;;;;;;8.30;6.97;;;22.20;99.90;;;;;;5093679;28;20171;-85
2023/08/22 06:57:55;;;;;;;7.05;5.13;;;22.20;99.90;;;;;;5103218;28;20208;-82
2023/08/22 07:00:21;;;;;;;7.47;6.50;;;22.30;46.60;;;;;;5089105;28;20172;-83
2023/08/22 07:02:47;;;;;;;6.25;5.57;;;22.30;99.90;;;;;;5092834;28;20185;-82
2023/08/22 07:05:14;;;;;;;8.05;5.50;;;22.20;99.90;;;;;;5077938;28;20553;-83
2023/08/22 07:07:40;;;;;;;8.02;6.80;;;22.30;99.90;;;;;;5085239;28;20172;-84
2023/08/22 07:10:08;;;;;;;11.63;6.88;;;22.10;99.90;;;;;;5091387;28;20172;-84
2023/08/22 07:12:34;;;;;;;11.38;7.55;;;22.00;99.90;;;;;;5091478;28;20318;-84
2023/08/22 07:14:59;;;;;;;10.52;7.53;;;22.00;99.90;;;;;;5092813;28;20274;-83
2023/08/22 07:17:25;;;;;;;8.55;7.65;;;21.90;99.90;;;;;;5091689;28;20196;-84
2023/08/22 07:19:51;;;;;;;8.63;6.65;;;21.90;99.90;;;;;;5092402;28;20168;-83
2023/08/22 07:22:17;;;;;;;9.07;7.22;;;22.00;99.90;;;;;;5091939;28;20175;-84
2023/08/22 07:24:42;;;;;;;8.80;7.90;;;22.10;99.90;;;;;;5092765;28;20195;-83
2023/08/22 07:27:10;;;;;;;8.52;7.20;;;22.20;99.90;;;;;;5093093;28;20164;-84
2023/08/22 07:29:36;;;;;;;8.57;7.75;;;22.20;99.90;;;;;;5092835;28;20259;-81
2023/08/22 07:32:02;;;;;;;8.88;7.65;;;22.30;99.90;;;;;;5092664;28;20259;-84
2023/08/22 07:34:28;;;;;;;8.95;8.00;;;22.30;99.90;;;;;;5091576;28;20200;-84
2023/08/22 07:36:54;;;;;;;9.63;7.75;;;22.30;99.90;;;;;;5091799;28;20257;-84
2023/08/22 07:39:21;;;;;;;11.25;7.95;;;22.40;99.90;;;;;;5095682;28;20174;-84
2023/08/22 07:41:47;;;;;;;10.35;7.60;;;22.40;99.90;;;;;;5116924;28;20168;-83
2023/08/22 07:44:13;;;;;;;10.15;6.68;;;22.50;99.90;;;;;;5115779;28;20199;-84
2023/08/22 07:46:39;;;;;;;9.82;6.93;;;22.60;99.90;;;;;;5117499;28;20713;-84
2023/08/22 07:49:05;;;;;;;8.15;6.53;;;22.90;99.90;;;;;;5117689;28;20250;-84
2023/08/22 07:51:31;;;;;;;7.80;6.43;;;23.10;62.30;;;;;;5091838;28;20176;-84
2023/08/22 07:53:56;;;;;;;6.82;4.88;;;23.20;1.00;;;;;;5111798;27;20630;-84
2023/08/22 07:56:22;;;;;;;5.93;5.30;;;23.50;1.00;;;;;;5076723;28;20199;-84
2023/08/22 07:58:48;;;;;;;8.65;6.32;;;23.70;1.00;;;;;;5092812;28;20177;-84
2023/08/22 08:01:14;;;;;;;9.65;6.13;;;23.80;1.00;;;;;;5076389;28;20173;-84
2023/08/22 08:03:40;;;;;;;6.95;5.80;;;24.00;1.00;;;;;;5076857;28;20349;-84
2023/08/22 08:06:05;;;;;;;6.00;5.18;;;24.10;99.90;;;;;;5075456;28;20169;-84
2023/08/22 08:08:31;;;;;;;9.27;6.35;;;24.20;99.90;;;;;;5077049;28;20260;-84
2023/08/22 08:10:56;;;;;;;10.43;6.93;;;24.40;1.00;;;;;;5074661;28;20169;-84
2023/08/22 08:13:22;;;;;;;9.48;6.90;;;24.30;99.90;;;;;;5075132;28;20350;-84
2023/08/22 08:15:48;;;;;;;8.23;6.63;;;24.30;1.00;;;;;;5075415;28;20173;-84
2023/08/22 08:18:15;;;;;;;7.72;6.20;;;24.10;1.00;;;;;;5076413;28;20267;-84
2023/08/22 08:20:41;;;;;;;8.63;5.97;;;24.20;99.90;;;;;;5075867;28;20169;-84
2023/08/22 08:23:06;;;;;;;8.10;5.97;;;24.20;1.00;;;;;;5076243;28;20198;-84
2023/08/22 08:25:32;;;;;;;7.50;5.65;;;24.30;1.00;;;;;;5074911;28;20169;-84
2023/08/22 08:27:58;;;;;;;9.48;6.10;;;24.40;99.90;;;;;;5074918;28;20568;-85
2023/08/22 08:30:24;;;;;;;6.75;5.97;;;24.50;1.00;;;;;;5074582;28;20196;-86
2023/08/22 08:32:50;;;;;;;8.35;5.28;;;24.70;1.00;;;;;;5076241;28;20197;-84
2023/08/22 08:35:15;;;;;;;7.13;5.18;;;24.70;1.00;;;;;;5074723;28;20173;-84
2023/08/22 08:37:41;;;;;;;4.97;4.53;;;24.90;1.00;;;;;;5075148;28;20193;-84
2023/08/22 08:40:08;;;;;;;6.90;5.22;;;25.00;1.00;;;;;;5075798;28;20181;-84
2023/08/22 08:42:38;;;;;;;8.52;5.35;;;25.20;99.90;;;;;;5074901;28;20237;-84
2023/08/22 08:45:07;;;;;;;6.07;4.90;;;25.20;1.00;;;;;;5076488;28;20196;-84
2023/08/22 08:47:34;;;;;;;6.30;4.53;;;25.30;1.00;;;;;;5075026;28;20184;-82
2023/08/22 08:50:01;;;;;;;7.28;4.90;;;25.40;1.00;;;;;;5074049;28;20181;-83
2023/08/22 08:52:27;;;;;;;5.20;4.22;;;25.40;1.00;;;;;;5074687;28;20202;-84
2023/08/22 08:54:54;;;;;;;6.03;4.47;;;25.50;1.00;;;;;;5075249;28;20288;-84
2023/08/22 08:57:19;;;;;;;5.93;4.57;;;25.70;1.00;;;;;;5074962;28;20189;-84
2023/08/22 08:59:45;;;;;;;5.05;4.55;;;25.80;99.90;;;;;;5074953;28;20170;-83
2023/08/22 09:02:15;;;;;;;4.47;4.07;;;25.70;1.00;;;;;;5075454;28;20648;-84
2023/08/22 09:04:41;;;;;;;6.25;4.47;;;25.70;1.00;;;;;;5073999;28;20236;-83
2023/08/22 09:07:07;;;;;;;5.20;4.22;;;25.80;1.00;;;;;;5075446;28;20256;-83
2023/08/22 09:09:35;;;;;;;6.45;4.68;;;25.90;66.70;;;;;;5073895;28;20279;-84
2023/08/22 09:12:05;;;;;;;4.72;4.30;;;26.00;1.00;;;;;;5075268;28;20185;-84
2023/08/22 09:14:30;;;;;;;5.25;4.20;;;26.20;99.90;;;;;;5080707;28;20739;-84
2023/08/22 09:17:01;;;;;;;4.97;4.10;;;26.50;1.00;;;;;;5095770;28;20192;-84
2023/08/22 09:19:31;;;;;;;6.35;4.40;;;26.80;99.90;;;;;;5095457;28;20198;-83
2023/08/22 09:21:59;;;;;;;5.75;4.32;;;26.90;1.00;;;;;;5095001;28;20231;-84
2023/08/22 09:24:25;;;;;;;4.28;3.80;;;27.00;1.00;;;;;;5094028;28;20218;-85
2023/08/22 09:26:51;;;;;;;6.07;4.25;;;27.10;1.00;;;;;;5095674;28;20203;-83
2023/08/22 09:29:28;;;;;;;4.80;4.10;;;27.40;1.00;;;;;;5093715;28;20548;-84
2023/08/22 09:32:03;;;;;;;8.15;4.47;;;27.40;1.00;;;;;;5093359;28;20187;-85
2023/08/22 09:34:29;;;;;;;9.85;7.22;;;27.60;1.00;;;;;;5095034;28;20237;-85
2023/08/22 09:36:55;;;;;;;6.38;5.10;;;27.70;1.00;;;;;;5095076;28;20203;-84
2023/08/22 09:39:25;;;;;;;5.10;3.88;;;27.90;1.00;;;;;;5094629;28;20251;-82
2023/08/22 09:41:54;;;;;;;5.80;4.00;;;28.10;1.00;;;;;;5094402;28;20173;-81
2023/08/22 09:44:26;;;;;;;5.43;4.10;;;28.10;1.00;;;;;;5095091;28;20204;-80
2023/08/22 09:46:54;;;;;;;5.47;4.15;;;28.00;79.30;;;;;;5093642;28;20177;-80
2023/08/22 09:49:20;;;;;;;4.55;4.03;;;28.00;24.20;;;;;;5094592;28;20177;-82
2023/08/22 09:51:51;;;;;;;6.50;4.10;;;28.00;99.90;;;;;;5092793;28;20176;-81
2023/08/22 09:54:17;;;;;;;4.50;4.10;;;28.00;1.00;;;;;;5095756;28;20230;-79
2023/08/22 09:56:44;;;;;;;8.75;5.97;;;28.30;99.90;;;;;;5093671;28;20222;-77
2023/08/22 09:59:14;;;;;;;7.65;4.40;;;28.20;1.00;;;;;;5094639;28;20172;-78
2023/08/22 10:01:41;;;;;;;5.28;3.90;;;28.30;99.90;;;;;;5093288;28;20302;-77
2023/08/22 10:04:08;;;;;;;4.38;3.85;;;28.40;1.00;;;;;;5094766;28;20590;-78
2023/08/22 10:06:35;;;;;;;5.18;4.30;;;28.20;1.00;;;;;;5110980;28;20256;-77
2023/08/22 10:09:11;;;;;;;7.30;4.32;;;27.70;99.90;;;;;;5094815;28;20168;-77
2023/08/22 10:11:59;;;;;;;5.28;4.38;;;27.40;99.90;;;;;;5093758;28;20641;-79
2023/08/22 10:14:42;;;;;;;6.57;4.28;;;27.20;99.90;;;;;;5093247;28;20196;-79
2023/08/22 10:17:13;;;;;;;5.07;4.28;;;27.40;1.00;;;;;;5094369;28;20188;-79
2023/08/22 10:19:40;;;;;;;6.25;4.60;;;27.40;1.00;;;;;;5094034;28;20264;-79
2023/08/22 10:22:13;;;;;;;10.15;4.57;;;27.60;99.90;;;;;;5093587;28;20175;-79
2023/08/22 10:24:40;;;;;;;6.47;4.25;;;28.10;1.00;;;;;;5096127;28;20189;-79
2023/08/22 10:27:10;;;;;;;7.32;4.30;;;28.40;99.90;;;;;;5093269;28;20169;-78
2023/08/22 10:29:47;;;;;;;4.95;4.25;;;28.40;99.90;;;;;;5094397;28;20192;-80
2023/08/22 10:32:20;;;;;;;5.10;3.75;;;28.80;1.00;;;;;;5093109;28;20187;-79
2023/08/22 10:34:46;;;;;;;8.25;4.20;;;29.20;37.00;;;;;;5093075;28;20188;-81
2023/08/22 10:37:15;;;;;;;4.72;4.10;;;29.10;1.00;;;;;;5094610;28;20611;-81
2023/08/22 10:39:49;;;;;;;4.45;4.05;;;29.00;99.90;;;;;;5099111;28;20195;-80
2023/08/22 10:42:17;;;;;;;6.07;3.70;;;29.20;1.00;;;;;;5115451;28;20259;-80
2023/08/22 10:44:57;;;;;;;4.40;4.00;;;29.20;99.90;;;;;;5114150;28;20804;-79
2023/08/22 10:47:27;;;;;;;4.97;3.63;;;29.30;1.00;;;;;;5116491;28;20159;-81
2023/08/22 10:49:56;;;;;;;4.53;3.97;;;29.30;99.90;;;;;;5114686;28;20294;-80
2023/08/22 10:52:40;;;;;;;5.95;3.85;;;29.10;99.90;;;;;;5115239;28;20171;-81
2023/08/22 10:55:08;;;;;;;6.45;3.80;;;28.70;99.90;;;;;;5114498;28;20159;-81
2023/08/22 10:57:36;;;;;;;5.38;3.72;;;28.60;1.00;;;;;;5115397;28;20191;-80
2023/08/22 11:00:20;;;;;;;4.22;3.83;;;28.80;99.90;;;;;;5107953;28;20179;-81
2023/08/22 11:02:49;;;;;;;5.43;4.13;;;28.90;99.90;;;;;;5093749;28;20209;-80
2023/08/22 11:05:15;;;;;;;4.15;3.65;;;28.90;99.90;;;;;;5074991;22;20223;-83
2023/08/22 11:07:51;;;;;;;3.33;3.03;;;29.30;1.00;;;;;;4995793;28;20224;-83
2023/08/22 11:10:22;;;;;;;4.63;3.10;;;29.40;99.90;;;;;;4996041;28;20186;-83
2023/08/22 11:12:50;;;;;;;3.83;3.20;;;29.70;99.90;;;;;;4993657;28;20175;-83
2023/08/22 11:15:17;;;;;;;4.63;3.30;;;29.90;99.90;;;;;;4994616;28;20218;-83
2023/08/22 11:17:45;;;;;;;3.50;3.15;;;30.00;1.00;;;;;;4995535;28;20199;-83
2023/08/22 11:20:12;;;;;;;4.93;3.40;;;30.10;1.00;;;;;;4993252;28;20183;-84
2023/08/22 11:22:40;;;;;;;3.83;3.25;;;30.00;1.00;;;;;;4993586;28;20172;-83
2023/08/22 11:25:06;;;;;;;4.57;2.92;;;30.10;1.00;;;;;;4990339;28;20211;-82
2023/08/22 11:27:32;;;;;;;4.90;3.15;;;30.10;1.00;;;;;;5013054;28;20211;-82
2023/08/22 11:29:58;;;;;;;3.45;3.10;;;30.10;99.90;;;;;;5063324;28;20175;-83
2023/08/22 11:32:27;;;;;;;3.70;3.40;;;30.10;99.90;;;;;;4997318;28;20177;-80
2023/08/22 11:34:59;;;;;;;4.22;3.22;;;30.20;99.90;;;;;;4994955;28;20207;-82
2023/08/22 11:37:25;;;;;;;4.68;2.67;;;30.30;1.00;;;;;;5024855;28;20679;-82
2023/08/22 11:39:52;;;;;;;3.20;2.72;;;30.50;1.00;;;;;;5007039;28;20195;-84
2023/08/22 11:42:19;;;;;;;3.90;2.90;;;30.70;1.00;;;;;;4994242;28;20175;-83
2023/08/22 11:45:03;;;;;;;3.33;2.80;;;30.50;1.00;;;;;;4994410;28;20213;-82
2023/08/22 11:47:58;;;;;;;3.83;2.92;;;30.80;1.00;;;;;;4996257;28;20172;-82
2023/08/22 11:50:28;;;;;;;3.05;2.75;;;30.90;99.90;;;;;;4991182;28;20196;-82
2023/08/22 11:52:54;;;;;;;3.60;2.83;;;30.90;1.00;;;;;;4995461;28;20200;-83
2023/08/22 11:55:28;;;;;;;5.82;3.30;;;30.90;1.00;;;;;;4994162;28;20199;-82
2023/08/22 11:57:56;;;;;;;3.40;3.10;;;31.10;1.00;;;;;;4995720;28;20291;-83
2023/08/22 12:00:24;;;;;;;3.80;2.97;;;31.30;1.00;;;;;;4995508;28;20203;-82
2023/08/22 12:02:54;;;;;;;3.50;2.90;;;31.30;99.90;;;;;;4995118;28;20267;-82
2023/08/22 12:05:39;;;;;;;3.88;2.80;;;31.10;99.90;;;;;;4997333;28;20207;-82
2023/08/22 12:08:10;;;;;;;3.25;2.90;;;30.70;99.90;;;;;;4995218;28;20187;-83
2023/08/22 12:10:41;;;;;;;2.92;2.72;;;30.40;99.90;;;;;;4996021;28;20243;-82
2023/08/22 12:13:08;;;;;;;4.05;2.90;;;30.70;1.00;;;;;;4996246;28;20187;-83
2023/08/22 12:15:34;;;;;;;3.15;2.85;;;30.70;99.90;;;;;;4994335;28;20192;-82
2023/08/22 12:18:00;;;;;;;3.95;3.03;;;30.80;99.90;;;;;;4994637;28;20203;-83
2023/08/22 12:20:26;;;;;;;3.05;2.72;;;30.50;99.90;;;;;;4993315;28;20183;-83
2023/08/22 12:22:51;;;;;;;3.08;2.75;;;30.60;99.90;;;;;;4995601;28;20195;-83
2023/08/22 12:25:17;;;;;;;3.00;2.60;;;30.80;99.90;;;;;;4995938;28;20226;-82
2023/08/22 12:27:42;;;;;;;4.10;2.88;;;31.20;99.90;;;;;;4997935;28;20179;-83
2023/08/22 12:30:08;;;;;;;3.90;2.60;;;31.30;99.90;;;;;;4998560;28;20176;-82
2023/08/22 12:32:34;;;;;;;4.72;2.47;;;31.40;99.90;;;;;;5000902;28;20266;-82
2023/08/22 12:35:00;;;;;;;2.85;2.50;;;31.40;99.90;;;;;;4998727;28;20192;-83
2023/08/22 12:37:25;;;;;;;3.63;2.60;;;31.00;99.90;;;;;;4999173;28;20203;-83
2023/08/22 12:39:51;;;;;;;3.08;2.80;;;30.80;99.90;;;;;;5000042;28;20250;-84
2023/08/22 12:42:17;;;;;;;2.80;2.60;;;30.80;99.90;;;;;;4999248;28;20202;-82
2023/08/22 12:44:43;;;;;;;3.08;2.70;;;31.00;99.90;;;;;;4996760;28;20728;-83
2023/08/22 12:47:09;;;;;;;3.15;2.60;;;31.40;99.90;;;;;;4998510;28;20176;-83
2023/08/22 12:49:34;;;;;;;3.05;2.72;;;31.70;99.90;;;;;;4996560;28;20182;-83